sensor_id;sensor_type;location;lat;lon;timestamp;temperature;humidity
20125;DHT22;10223;50.862;4.360;2023-02-21T00:00:26;7.60;99.90
20125;DHT22;10223;50.862;4.360;2023-02-21T00:03:10;7.70;99.90
20125;DHT22;10223;50.862;4.360;2023-02-21T00:05:54;7.70;99.90
20125;DHT22;10223;50.862;4.360;2023-02-21T00:08:38;7.70;99.90
20125;DHT22;10223;50.862;4.360;2023-02-21T00:11:23;7.60;99.90
20125;DHT22;10223;50.862;4.360;2023-02-21T00:14:08;7.60;99.90
20125;DHT22;10223;50.862;4.360;2023-02-21T00:16:53;7.50;99.90
20125;DHT22;10223;50.862;4.360;2023-02-21T00:19:37;7.50;99.90
20125;DHT22;10223;50.862;4.360;2023-02-21T00:22:21;7.60;99.90
20125;DHT22;10223;50.862;4.360;2023-02-21T00:25:05;7.50;99.90
20125;DHT22;10223;50.862;4.360;2023-02-21T00:27:49;7.50;99.90
20125;DHT22;10223;50.862;4.360;2023-02-21T00:30:35;7.60;99.90
20125;DHT22;10223;50.862;4.360;2023-02-21T00:33:19;7.50;99.90
20125;DHT22;10223;50.862;4.360;2023-02-21T00:36:04;7.60;99.90
20125;DHT22;10223;50.862;4.360;2023-02-21T00:38:48;7.50;99.90
20125;DHT22;10223;50.862;4.360;2023-02-21T00:41:32;7.50;99.90
20125;DHT22;10223;50.862;4.360;2023-02-21T00:44:17;7.50;99.90
20125;DHT22;10223;50.862;4.360;2023-02-21T00:47:02;7.50;99.90
20125;DHT22;10223;50.862;4.360;2023-02-21T00:49:46;7.60;99.90
20125;DHT22;10223;50.862;4.360;2023-02-21T00:52:30;7.50;99.90
20125;DHT22;10223;50.862;4.360;2023-02-21T00:55:15;7.50;99.90
20125;DHT22;10223;50.862;4.360;2023-02-21T00:57:59;7.50;99.90
20125;DHT22;10223;50.862;4.360;2023-02-21T01:00:43;7.60;99.90
20125;DHT22;10223;50.862;4.360;2023-02-21T01:03:29;7.50;99.90
20125;DHT22;10223;50.862;4.360;2023-02-21T01:06:13;7.40;99.90
20125;DHT22;10223;50.862;4.360;2023-02-21T01:08:57;7.40;99.90
20125;DHT22;10223;50.862;4.360;2023-02-21T01:11:41;7.50;99.90
20125;DHT22;10223;50.862;4.360;2023-02-21T01:14:25;7.40;99.90
20125;DHT22;10223;50.862;4.360;2023-02-21T01:17:10;7.30;99.90
20125;DHT22;10223;50.862;4.360;2023-02-21T01:19:55;7.10;99.90
20125;DHT22;10223;50.862;4.360;2023-02-21T01:22:40;7.10;99.90
20125;DHT22;10223;50.862;4.360;2023-02-21T01:25:24;7.00;99.90
20125;DHT22;10223;50.862;4.360;2023-02-21T01:28:08;7.10;99.90
20125;DHT22;10223;50.862;4.360;2023-02-21T01:30:53;7.10;99.90
20125;DHT22;10223;50.862;4.360;2023-02-21T01:33:38;7.20;99.90
20125;DHT22;10223;50.862;4.360;2023-02-21T01:36:24;7.20;99.90
20125;DHT22;10223;50.862;4.360;2023-02-21T01:39:09;7.20;99.90
20125;DHT22;10223;50.862;4.360;2023-02-21T01:41:53;7.40;99.90
20125;DHT22;10223;50.862;4.360;2023-02-21T01:44:39;7.50;99.90
20125;DHT22;10223;50.862;4.360;2023-02-21T01:47:25;7.60;99.90
20125;DHT22;10223;50.862;4.360;2023-02-21T01:50:14;7.70;99.90
20125;DHT22;10223;50.862;4.360;2023-02-21T01:53:02;7.70;99.90
20125;DHT22;10223;50.862;4.360;2023-02-21T01:55:47;7.70;99.90
20125;DHT22;10223;50.862;4.360;2023-02-21T01:58:32;7.60;99.90
20125;DHT22;10223;50.862;4.360;2023-02-21T02:01:27;7.50;99.90
20125;DHT22;10223;50.862;4.360;2023-02-21T02:04:12;7.50;99.90
20125;DHT22;10223;50.862;4.360;2023-02-21T02:06:57;7.30;99.90
20125;DHT22;10223;50.862;4.360;2023-02-21T02:09:43;7.30;99.90
20125;DHT22;10223;50.862;4.360;2023-02-21T02:13:02;7.40;99.90
20125;DHT22;10223;50.862;4.360;2023-02-21T02:15:37;7.30;99.90
20125;DHT22;10223;50.862;4.360;2023-02-21T02:24:46;7.60;99.90
20125;DHT22;10223;50.862;4.360;2023-02-21T02:31:07;7.80;99.90
20125;DHT22;10223;50.862;4.360;2023-02-21T02:33:53;7.60;99.90
20125;DHT22;10223;50.862;4.360;2023-02-21T02:36:29;7.50;99.90
20125;DHT22;10223;50.862;4.360;2023-02-21T02:39:02;7.50;99.90
20125;DHT22;10223;50.862;4.360;2023-02-21T02:41:38;7.50;99.90
20125;DHT22;10223;50.862;4.360;2023-02-21T02:44:13;7.60;99.90
20125;DHT22;10223;50.862;4.360;2023-02-21T02:46:42;7.50;99.90
20125;DHT22;10223;50.862;4.360;2023-02-21T02:49:15;7.60;99.90
20125;DHT22;10223;50.862;4.360;2023-02-21T02:51:45;7.60;99.90
20125;DHT22;10223;50.862;4.360;2023-02-21T02:54:12;7.70;99.90
20125;DHT22;10223;50.862;4.360;2023-02-21T02:56:39;7.70;99.90
20125;DHT22;10223;50.862;4.360;2023-02-21T02:59:08;7.70;99.90
20125;DHT22;10223;50.862;4.360;2023-02-21T03:01:55;7.70;99.90
20125;DHT22;10223;50.862;4.360;2023-02-21T03:04:44;7.80;99.90
20125;DHT22;10223;50.862;4.360;2023-02-21T03:07:20;7.90;99.90
20125;DHT22;10223;50.862;4.360;2023-02-21T03:09:57;7.80;99.90
20125;DHT22;10223;50.862;4.360;2023-02-21T03:12:34;7.80;99.90
20125;DHT22;10223;50.862;4.360;2023-02-21T03:15:06;7.60;99.90
20125;DHT22;10223;50.862;4.360;2023-02-21T03:17:38;7.60;99.90
20125;DHT22;10223;50.862;4.360;2023-02-21T03:20:07;7.60;99.90
20125;DHT22;10223;50.862;4.360;2023-02-21T03:22:37;7.60;99.90
20125;DHT22;10223;50.862;4.360;2023-02-21T03:25:05;7.50;99.90
20125;DHT22;10223;50.862;4.360;2023-02-21T03:27:34;7.30;99.90
20125;DHT22;10223;50.862;4.360;2023-02-21T03:30:05;7.20;99.90
20125;DHT22;10223;50.862;4.360;2023-02-21T03:32:36;7.30;99.90
20125;DHT22;10223;50.862;4.360;2023-02-21T03:35:04;7.30;99.90
20125;DHT22;10223;50.862;4.360;2023-02-21T03:37:34;7.30;99.90
20125;DHT22;10223;50.862;4.360;2023-02-21T03:40:04;7.20;99.90
20125;DHT22;10223;50.862;4.360;2023-02-21T03:42:32;7.00;99.90
20125;DHT22;10223;50.862;4.360;2023-02-21T03:44:58;7.00;99.90
20125;DHT22;10223;50.862;4.360;2023-02-21T03:47:25;7.00;99.90
20125;DHT22;10223;50.862;4.360;2023-02-21T03:49:52;7.00;99.90
20125;DHT22;10223;50.862;4.360;2023-02-21T03:52:19;7.00;99.90
20125;DHT22;10223;50.862;4.360;2023-02-21T03:54:46;7.00;99.90
20125;DHT22;10223;50.862;4.360;2023-02-21T03:57:14;7.00;99.90
20125;DHT22;10223;50.862;4.360;2023-02-21T03:59:42;7.00;99.90
20125;DHT22;10223;50.862;4.360;2023-02-21T04:02:09;7.00;99.90
20125;DHT22;10223;50.862;4.360;2023-02-21T04:04:35;7.00;99.90
20125;DHT22;10223;50.862;4.360;2023-02-21T04:07:02;7.10;99.90
20125;DHT22;10223;50.862;4.360;2023-02-21T04:09:29;7.10;99.90
20125;DHT22;10223;50.862;4.360;2023-02-21T04:11:56;7.00;99.90
20125;DHT22;10223;50.862;4.360;2023-02-21T04:14:24;7.00;99.90
20125;DHT22;10223;50.862;4.360;2023-02-21T04:16:51;7.10;99.90
20125;DHT22;10223;50.862;4.360;2023-02-21T04:19:18;7.20;99.90
20125;DHT22;10223;50.862;4.360;2023-02-21T04:21:45;7.20;99.90
20125;DHT22;10223;50.862;4.360;2023-02-21T04:24:12;7.20;99.90
20125;DHT22;10223;50.862;4.360;2023-02-21T04:26:39;7.30;99.90
20125;DHT22;10223;50.862;4.360;2023-02-21T04:29:06;7.30;99.90
20125;DHT22;10223;50.862;4.360;2023-02-21T04:31:34;7.30;99.90
20125;DHT22;10223;50.862;4.360;2023-02-21T04:34:01;7.20;99.90
20125;DHT22;10223;50.862;4.360;2023-02-21T04:36:28;7.10;99.90
20125;DHT22;10223;50.862;4.360;2023-02-21T04:38:55;7.20;99.90
20125;DHT22;10223;50.862;4.360;2023-02-21T04:41:22;7.20;99.90
20125;DHT22;10223;50.862;4.360;2023-02-21T04:43:49;7.20;99.90
20125;DHT22;10223;50.862;4.360;2023-02-21T04:46:18;7.40;99.90
20125;DHT22;10223;50.862;4.360;2023-02-21T04:48:48;7.40;99.90
20125;DHT22;10223;50.862;4.360;2023-02-21T04:51:19;7.50;99.90
20125;DHT22;10223;50.862;4.360;2023-02-21T04:53:48;7.60;99.90
20125;DHT22;10223;50.862;4.360;2023-02-21T04:56:18;7.50;99.90
20125;DHT22;10223;50.862;4.360;2023-02-21T04:58:45;7.40;99.90
20125;DHT22;10223;50.862;4.360;2023-02-21T05:01:12;7.30;99.90
20125;DHT22;10223;50.862;4.360;2023-02-21T05:03:39;7.00;99.90
20125;DHT22;10223;50.862;4.360;2023-02-21T05:06:08;7.00;99.90
20125;DHT22;10223;50.862;4.360;2023-02-21T05:08:35;7.00;99.90
20125;DHT22;10223;50.862;4.360;2023-02-21T05:11:02;7.00;99.90
20125;DHT22;10223;50.862;4.360;2023-02-21T05:13:29;7.00;99.90
20125;DHT22;10223;50.862;4.360;2023-02-21T05:15:56;7.00;99.90
20125;DHT22;10223;50.862;4.360;2023-02-21T05:18:23;7.00;99.90
20125;DHT22;10223;50.862;4.360;2023-02-21T05:20:53;7.10;99.90
20125;DHT22;10223;50.862;4.360;2023-02-21T05:23:21;7.10;99.90
20125;DHT22;10223;50.862;4.360;2023-02-21T05:25:58;7.10;99.90
20125;DHT22;10223;50.862;4.360;2023-02-21T05:28:25;6.90;99.90
20125;DHT22;10223;50.862;4.360;2023-02-21T05:30:53;6.80;99.90
20125;DHT22;10223;50.862;4.360;2023-02-21T05:33:20;6.90;99.90
20125;DHT22;10223;50.862;4.360;2023-02-21T05:35:47;6.80;99.90
20125;DHT22;10223;50.862;4.360;2023-02-21T05:38:15;6.90;99.90
20125;DHT22;10223;50.862;4.360;2023-02-21T05:40:43;7.00;99.90
20125;DHT22;10223;50.862;4.360;2023-02-21T05:43:10;7.00;99.90
20125;DHT22;10223;50.862;4.360;2023-02-21T05:45:37;6.90;99.90
20125;DHT22;10223;50.862;4.360;2023-02-21T05:48:04;6.90;99.90
20125;DHT22;10223;50.862;4.360;2023-02-21T05:50:31;6.80;99.90
20125;DHT22;10223;50.862;4.360;2023-02-21T05:52:59;6.90;99.90
20125;DHT22;10223;50.862;4.360;2023-02-21T05:55:26;6.90;99.90
20125;DHT22;10223;50.862;4.360;2023-02-21T05:57:55;6.90;99.90
20125;DHT22;10223;50.862;4.360;2023-02-21T06:00:24;6.80;99.90
20125;DHT22;10223;50.862;4.360;2023-02-21T06:02:52;6.80;99.90
20125;DHT22;10223;50.862;4.360;2023-02-21T06:05:20;6.80;99.90
20125;DHT22;10223;50.862;4.360;2023-02-21T06:07:48;6.80;99.90
20125;DHT22;10223;50.862;4.360;2023-02-21T06:10:15;6.80;99.90
20125;DHT22;10223;50.862;4.360;2023-02-21T06:12:46;6.80;99.90
20125;DHT22;10223;50.862;4.360;2023-02-21T06:15:14;6.80;99.90
20125;DHT22;10223;50.862;4.360;2023-02-21T06:17:42;6.80;99.90
20125;DHT22;10223;50.862;4.360;2023-02-21T06:20:12;6.90;99.90
20125;DHT22;10223;50.862;4.360;2023-02-21T06:22:41;7.00;99.90
20125;DHT22;10223;50.862;4.360;2023-02-21T06:25:08;6.90;99.90
20125;DHT22;10223;50.862;4.360;2023-02-21T06:27:35;7.10;99.90
20125;DHT22;10223;50.862;4.360;2023-02-21T06:30:03;7.10;99.90
20125;DHT22;10223;50.862;4.360;2023-02-21T06:32:32;6.80;99.90
20125;DHT22;10223;50.862;4.360;2023-02-21T06:34:59;6.80;99.90
20125;DHT22;10223;50.862;4.360;2023-02-21T06:37:26;6.70;99.90
20125;DHT22;10223;50.862;4.360;2023-02-21T06:39:53;6.80;99.90
20125;DHT22;10223;50.862;4.360;2023-02-21T06:42:21;6.80;99.90
20125;DHT22;10223;50.862;4.360;2023-02-21T06:44:49;6.70;99.90
20125;DHT22;10223;50.862;4.360;2023-02-21T06:47:16;6.70;99.90
20125;DHT22;10223;50.862;4.360;2023-02-21T06:49:44;6.80;99.90
20125;DHT22;10223;50.862;4.360;2023-02-21T06:52:12;6.80;99.90
20125;DHT22;10223;50.862;4.360;2023-02-21T06:54:39;6.80;99.90
20125;DHT22;10223;50.862;4.360;2023-02-21T06:57:05;6.80;99.90
20125;DHT22;10223;50.862;4.360;2023-02-21T06:59:32;6.70;99.90
20125;DHT22;10223;50.862;4.360;2023-02-21T07:01:59;6.70;99.90
20125;DHT22;10223;50.862;4.360;2023-02-21T07:04:27;6.80;99.90
20125;DHT22;10223;50.862;4.360;2023-02-21T07:06:58;6.80;99.90
20125;DHT22;10223;50.862;4.360;2023-02-21T07:09:24;6.90;99.90
20125;DHT22;10223;50.862;4.360;2023-02-21T07:11:51;6.80;99.90
20125;DHT22;10223;50.862;4.360;2023-02-21T07:14:18;7.00;99.90
20125;DHT22;10223;50.862;4.360;2023-02-21T07:16:45;7.00;99.90
20125;DHT22;10223;50.862;4.360;2023-02-21T07:19:12;6.80;99.90
20125;DHT22;10223;50.862;4.360;2023-02-21T07:21:41;6.80;99.90
20125;DHT22;10223;50.862;4.360;2023-02-21T07:24:10;6.70;99.90
20125;DHT22;10223;50.862;4.360;2023-02-21T07:26:37;6.80;99.90
20125;DHT22;10223;50.862;4.360;2023-02-21T07:29:05;6.90;99.90
20125;DHT22;10223;50.862;4.360;2023-02-21T07:31:32;6.80;99.90
20125;DHT22;10223;50.862;4.360;2023-02-21T07:33:59;6.80;99.90
20125;DHT22;10223;50.862;4.360;2023-02-21T07:36:26;6.80;99.90
20125;DHT22;10223;50.862;4.360;2023-02-21T07:38:53;6.80;99.90
20125;DHT22;10223;50.862;4.360;2023-02-21T07:41:21;6.80;99.90
20125;DHT22;10223;50.862;4.360;2023-02-21T07:43:48;6.90;99.90
20125;DHT22;10223;50.862;4.360;2023-02-21T07:46:16;7.00;99.90
20125;DHT22;10223;50.862;4.360;2023-02-21T07:48:43;7.00;99.90
20125;DHT22;10223;50.862;4.360;2023-02-21T07:51:10;6.90;99.90
20125;DHT22;10223;50.862;4.360;2023-02-21T07:53:37;6.80;99.90
20125;DHT22;10223;50.862;4.360;2023-02-21T07:56:04;6.80;99.90
20125;DHT22;10223;50.862;4.360;2023-02-21T07:58:32;6.90;99.90
20125;DHT22;10223;50.862;4.360;2023-02-21T08:01:02;7.00;99.90
20125;DHT22;10223;50.862;4.360;2023-02-21T08:03:29;6.90;99.90
20125;DHT22;10223;50.862;4.360;2023-02-21T08:05:56;6.80;99.90
20125;DHT22;10223;50.862;4.360;2023-02-21T08:08:23;6.80;99.90
20125;DHT22;10223;50.862;4.360;2023-02-21T08:10:50;6.80;99.90
20125;DHT22;10223;50.862;4.360;2023-02-21T08:13:17;6.90;99.90
20125;DHT22;10223;50.862;4.360;2023-02-21T08:15:45;6.90;99.90
20125;DHT22;10223;50.862;4.360;2023-02-21T08:18:17;6.90;99.90
20125;DHT22;10223;50.862;4.360;2023-02-21T08:20:45;6.90;99.90
20125;DHT22;10223;50.862;4.360;2023-02-21T08:23:12;6.90;99.90
20125;DHT22;10223;50.862;4.360;2023-02-21T08:25:39;7.00;99.90
20125;DHT22;10223;50.862;4.360;2023-02-21T08:28:06;7.00;99.90
20125;DHT22;10223;50.862;4.360;2023-02-21T08:30:33;7.10;99.90
20125;DHT22;10223;50.862;4.360;2023-02-21T08:33:01;7.10;99.90
20125;DHT22;10223;50.862;4.360;2023-02-21T08:35:28;7.10;99.90
20125;DHT22;10223;50.862;4.360;2023-02-21T08:37:55;7.00;99.90
20125;DHT22;10223;50.862;4.360;2023-02-21T08:40:28;7.10;99.90
20125;DHT22;10223;50.862;4.360;2023-02-21T08:42:55;7.20;99.90
20125;DHT22;10223;50.862;4.360;2023-02-21T08:45:23;7.20;99.90
20125;DHT22;10223;50.862;4.360;2023-02-21T08:47:51;7.20;99.90
20125;DHT22;10223;50.862;4.360;2023-02-21T08:50:21;7.20;99.90
20125;DHT22;10223;50.862;4.360;2023-02-21T08:52:49;7.20;99.90
20125;DHT22;10223;50.862;4.360;2023-02-21T08:55:17;7.10;99.90
20125;DHT22;10223;50.862;4.360;2023-02-21T08:57:47;7.20;99.90
20125;DHT22;10223;50.862;4.360;2023-02-21T09:00:15;7.20;99.90
20125;DHT22;10223;50.862;4.360;2023-02-21T09:02:42;7.20;99.90
20125;DHT22;10223;50.862;4.360;2023-02-21T09:05:11;7.40;99.90
20125;DHT22;10223;50.862;4.360;2023-02-21T09:07:40;7.20;99.90
20125;DHT22;10223;50.862;4.360;2023-02-21T09:10:07;7.20;99.90
20125;DHT22;10223;50.862;4.360;2023-02-21T09:12:35;7.20;99.90
20125;DHT22;10223;50.862;4.360;2023-02-21T09:15:02;7.40;99.90
20125;DHT22;10223;50.862;4.360;2023-02-21T09:17:30;7.20;99.90
20125;DHT22;10223;50.862;4.360;2023-02-21T09:19:58;7.30;99.90
20125;DHT22;10223;50.862;4.360;2023-02-21T09:22:25;7.40;99.90
20125;DHT22;10223;50.862;4.360;2023-02-21T09:24:54;7.50;99.90
20125;DHT22;10223;50.862;4.360;2023-02-21T09:27:21;7.50;99.90
20125;DHT22;10223;50.862;4.360;2023-02-21T09:30:02;7.60;99.90
20125;DHT22;10223;50.862;4.360;2023-02-21T09:32:29;7.40;99.90
20125;DHT22;10223;50.862;4.360;2023-02-21T09:34:56;7.50;99.90
20125;DHT22;10223;50.862;4.360;2023-02-21T09:37:23;7.40;99.90
20125;DHT22;10223;50.862;4.360;2023-02-21T09:39:50;7.40;99.90
20125;DHT22;10223;50.862;4.360;2023-02-21T09:42:21;7.50;99.90
20125;DHT22;10223;50.862;4.360;2023-02-21T09:44:50;7.50;99.90
20125;DHT22;10223;50.862;4.360;2023-02-21T09:47:23;7.70;99.90
20125;DHT22;10223;50.862;4.360;2023-02-21T09:49:56;8.00;99.90
20125;DHT22;10223;50.862;4.360;2023-02-21T09:52:29;7.80;99.90
20125;DHT22;10223;50.862;4.360;2023-02-21T09:54:59;7.80;99.90
20125;DHT22;10223;50.862;4.360;2023-02-21T09:57:29;8.00;99.90
20125;DHT22;10223;50.862;4.360;2023-02-21T09:59:56;7.90;99.90
20125;DHT22;10223;50.862;4.360;2023-02-21T10:02:34;8.10;99.90
20125;DHT22;10223;50.862;4.360;2023-02-21T10:05:15;8.00;99.90
20125;DHT22;10223;50.862;4.360;2023-02-21T10:07:48;7.80;99.90
20125;DHT22;10223;50.862;4.360;2023-02-21T10:10:22;7.70;99.90
20125;DHT22;10223;50.862;4.360;2023-02-21T10:12:58;7.60;99.90
20125;DHT22;10223;50.862;4.360;2023-02-21T10:15:38;7.70;99.90
20125;DHT22;10223;50.862;4.360;2023-02-21T10:18:12;7.80;99.90
20125;DHT22;10223;50.862;4.360;2023-02-21T10:20:46;7.80;99.90
20125;DHT22;10223;50.862;4.360;2023-02-21T10:23:17;7.80;99.90
20125;DHT22;10223;50.862;4.360;2023-02-21T10:25:47;7.80;99.90
20125;DHT22;10223;50.862;4.360;2023-02-21T10:28:19;7.90;99.90
20125;DHT22;10223;50.862;4.360;2023-02-21T10:30:47;7.90;99.90
20125;DHT22;10223;50.862;4.360;2023-02-21T10:33:15;7.80;99.90
20125;DHT22;10223;50.862;4.360;2023-02-21T10:35:42;7.60;99.90
20125;DHT22;10223;50.862;4.360;2023-02-21T10:38:11;7.60;99.90
20125;DHT22;10223;50.862;4.360;2023-02-21T10:40:40;7.40;99.90
20125;DHT22;10223;50.862;4.360;2023-02-21T10:43:11;7.50;99.90
20125;DHT22;10223;50.862;4.360;2023-02-21T10:45:43;7.70;99.90
20125;DHT22;10223;50.862;4.360;2023-02-21T10:48:12;7.80;99.90
20125;DHT22;10223;50.862;4.360;2023-02-21T10:50:48;7.70;99.90
20125;DHT22;10223;50.862;4.360;2023-02-21T10:53:26;7.80;99.90
20125;DHT22;10223;50.862;4.360;2023-02-21T10:56:19;7.80;99.90
20125;DHT22;10223;50.862;4.360;2023-02-21T10:58:48;7.70;99.90
20125;DHT22;10223;50.862;4.360;2023-02-21T11:01:19;7.70;99.90
20125;DHT22;10223;50.862;4.360;2023-02-21T11:03:49;7.60;99.90
20125;DHT22;10223;50.862;4.360;2023-02-21T11:06:32;7.70;99.90
20125;DHT22;10223;50.862;4.360;2023-02-21T11:09:00;7.70;99.90
20125;DHT22;10223;50.862;4.360;2023-02-21T11:11:32;7.90;99.90
20125;DHT22;10223;50.862;4.360;2023-02-21T11:14:23;8.10;99.90
20125;DHT22;10223;50.862;4.360;2023-02-21T11:17:22;8.00;99.90
20125;DHT22;10223;50.862;4.360;2023-02-21T11:19:51;8.10;99.90
20125;DHT22;10223;50.862;4.360;2023-02-21T11:22:21;8.20;99.90
20125;DHT22;10223;50.862;4.360;2023-02-21T11:24:57;8.20;99.90
20125;DHT22;10223;50.862;4.360;2023-02-21T11:27:25;8.30;99.90
20125;DHT22;10223;50.862;4.360;2023-02-21T11:29:54;8.30;99.90
20125;DHT22;10223;50.862;4.360;2023-02-21T11:32:29;8.40;99.90
20125;DHT22;10223;50.862;4.360;2023-02-21T11:35:02;8.60;99.90
20125;DHT22;10223;50.862;4.360;2023-02-21T11:37:30;8.40;99.90
20125;DHT22;10223;50.862;4.360;2023-02-21T11:39:57;8.40;99.90
20125;DHT22;10223;50.862;4.360;2023-02-21T11:42:29;8.40;99.90
20125;DHT22;10223;50.862;4.360;2023-02-21T11:45:17;8.40;99.90
20125;DHT22;10223;50.862;4.360;2023-02-21T11:47:53;8.50;99.90
20125;DHT22;10223;50.862;4.360;2023-02-21T11:50:24;8.40;99.90
20125;DHT22;10223;50.862;4.360;2023-02-21T11:52:57;8.40;99.90
20125;DHT22;10223;50.862;4.360;2023-02-21T11:55:26;8.40;99.90
20125;DHT22;10223;50.862;4.360;2023-02-21T11:58:14;8.20;99.90
20125;DHT22;10223;50.862;4.360;2023-02-21T12:00:47;8.50;99.90
20125;DHT22;10223;50.862;4.360;2023-02-21T12:03:53;8.60;99.90
20125;DHT22;10223;50.862;4.360;2023-02-21T12:06:27;8.70;99.90
20125;DHT22;10223;50.862;4.360;2023-02-21T12:09:00;8.70;99.90
20125;DHT22;10223;50.862;4.360;2023-02-21T12:11:38;8.40;99.90
20125;DHT22;10223;50.862;4.360;2023-02-21T12:14:35;8.10;99.90
20125;DHT22;10223;50.862;4.360;2023-02-21T12:17:23;8.20;99.90
20125;DHT22;10223;50.862;4.360;2023-02-21T12:20:08;8.10;99.90
20125;DHT22;10223;50.862;4.360;2023-02-21T12:22:52;8.20;99.90
20125;DHT22;10223;50.862;4.360;2023-02-21T12:25:28;8.30;99.90
20125;DHT22;10223;50.862;4.360;2023-02-21T12:28:03;8.40;99.90
20125;DHT22;10223;50.862;4.360;2023-02-21T12:30:44;8.30;99.90
20125;DHT22;10223;50.862;4.360;2023-02-21T12:33:29;8.30;99.90
20125;DHT22;10223;50.862;4.360;2023-02-21T12:36:23;8.60;99.90
20125;DHT22;10223;50.862;4.360;2023-02-21T12:38:53;8.70;99.90
20125;DHT22;10223;50.862;4.360;2023-02-21T12:41:48;8.70;99.90
20125;DHT22;10223;50.862;4.360;2023-02-21T12:44:20;8.60;99.90
20125;DHT22;10223;50.862;4.360;2023-02-21T12:46:51;8.50;99.90
20125;DHT22;10223;50.862;4.360;2023-02-21T12:49:24;8.30;99.90
20125;DHT22;10223;50.862;4.360;2023-02-21T12:52:01;8.30;99.90
20125;DHT22;10223;50.862;4.360;2023-02-21T12:54:37;8.20;99.90
20125;DHT22;10223;50.862;4.360;2023-02-21T12:57:08;8.20;99.90
20125;DHT22;10223;50.862;4.360;2023-02-21T12:59:47;8.20;99.90
20125;DHT22;10223;50.862;4.360;2023-02-21T13:02:21;8.30;99.90
20125;DHT22;10223;50.862;4.360;2023-02-21T13:04:54;8.50;99.90
20125;DHT22;10223;50.862;4.360;2023-02-21T13:07:25;8.40;99.90
20125;DHT22;10223;50.862;4.360;2023-02-21T13:10:00;8.60;99.90
20125;DHT22;10223;50.862;4.360;2023-02-21T13:12:34;8.60;99.90
20125;DHT22;10223;50.862;4.360;2023-02-21T13:15:13;8.70;99.90
20125;DHT22;10223;50.862;4.360;2023-02-21T13:17:42;8.70;99.90
20125;DHT22;10223;50.862;4.360;2023-02-21T13:20:12;8.80;99.90
20125;DHT22;10223;50.862;4.360;2023-02-21T13:26:30;8.80;99.90
20125;DHT22;10223;50.862;4.360;2023-02-21T13:29:00;8.70;99.90
20125;DHT22;10223;50.862;4.360;2023-02-21T13:31:32;8.50;99.90
20125;DHT22;10223;50.862;4.360;2023-02-21T13:34:02;8.60;99.90
20125;DHT22;10223;50.862;4.360;2023-02-21T13:36:38;8.60;99.90
20125;DHT22;10223;50.862;4.360;2023-02-21T13:39:14;8.60;99.90
20125;DHT22;10223;50.862;4.360;2023-02-21T13:41:52;8.40;99.90
20125;DHT22;10223;50.862;4.360;2023-02-21T13:44:24;8.50;99.90
20125;DHT22;10223;50.862;4.360;2023-02-21T13:47:08;8.60;99.90
20125;DHT22;10223;50.862;4.360;2023-02-21T13:49:50;8.70;99.90
20125;DHT22;10223;50.862;4.360;2023-02-21T13:52:34;8.50;99.90
20125;DHT22;10223;50.862;4.360;2023-02-21T13:55:19;8.60;99.90
20125;DHT22;10223;50.862;4.360;2023-02-21T13:57:48;8.50;99.90
20125;DHT22;10223;50.862;4.360;2023-02-21T14:00:49;8.60;99.90
20125;DHT22;10223;50.862;4.360;2023-02-21T14:03:31;8.40;99.90
20125;DHT22;10223;50.862;4.360;2023-02-21T14:06:33;8.40;99.90
20125;DHT22;10223;50.862;4.360;2023-02-21T14:09:10;8.30;99.90
20125;DHT22;10223;50.862;4.360;2023-02-21T14:11:43;8.40;99.90
20125;DHT22;10223;50.862;4.360;2023-02-21T14:14:25;8.30;99.90
20125;DHT22;10223;50.862;4.360;2023-02-21T14:16:58;8.30;99.90
20125;DHT22;10223;50.862;4.360;2023-02-21T14:19:32;8.40;99.90
20125;DHT22;10223;50.862;4.360;2023-02-21T14:22:04;8.40;99.90
20125;DHT22;10223;50.862;4.360;2023-02-21T14:24:37;8.40;99.90
20125;DHT22;10223;50.862;4.360;2023-02-21T14:27:33;8.60;99.90
20125;DHT22;10223;50.862;4.360;2023-02-21T14:30:23;8.80;99.90
20125;DHT22;10223;50.862;4.360;2023-02-21T14:32:52;8.90;99.90
20125;DHT22;10223;50.862;4.360;2023-02-21T14:35:28;8.70;99.90
20125;DHT22;10223;50.862;4.360;2023-02-21T14:37:59;8.90;99.90
20125;DHT22;10223;50.862;4.360;2023-02-21T14:40:33;9.00;99.90
20125;DHT22;10223;50.862;4.360;2023-02-21T14:43:26;9.10;99.90
20125;DHT22;10223;50.862;4.360;2023-02-21T14:46:11;9.10;99.90
20125;DHT22;10223;50.862;4.360;2023-02-21T14:48:54;8.90;99.90
20125;DHT22;10223;50.862;4.360;2023-02-21T14:55:14;8.90;99.90
20125;DHT22;10223;50.862;4.360;2023-02-21T14:58:13;8.90;99.90
20125;DHT22;10223;50.862;4.360;2023-02-21T15:00:55;8.80;99.90
20125;DHT22;10223;50.862;4.360;2023-02-21T15:03:30;8.90;99.90
20125;DHT22;10223;50.862;4.360;2023-02-21T15:06:03;9.00;99.90
20125;DHT22;10223;50.862;4.360;2023-02-21T15:08:40;9.20;99.90
20125;DHT22;10223;50.862;4.360;2023-02-21T15:11:18;9.20;99.90
20125;DHT22;10223;50.862;4.360;2023-02-21T15:13:45;9.20;99.90
20125;DHT22;10223;50.862;4.360;2023-02-21T15:16:15;9.10;99.90
20125;DHT22;10223;50.862;4.360;2023-02-21T15:18:58;9.20;99.90
20125;DHT22;10223;50.862;4.360;2023-02-21T15:21:26;9.20;99.90
20125;DHT22;10223;50.862;4.360;2023-02-21T15:24:00;9.20;99.90
20125;DHT22;10223;50.862;4.360;2023-02-21T15:26:30;9.10;99.90
20125;DHT22;10223;50.862;4.360;2023-02-21T15:29:09;9.20;99.90
20125;DHT22;10223;50.862;4.360;2023-02-21T15:31:40;8.90;99.90
20125;DHT22;10223;50.862;4.360;2023-02-21T15:34:14;8.90;99.90
20125;DHT22;10223;50.862;4.360;2023-02-21T15:36:43;8.70;99.90
20125;DHT22;10223;50.862;4.360;2023-02-21T15:39:16;8.80;99.90
20125;DHT22;10223;50.862;4.360;2023-02-21T15:41:48;8.80;99.90
20125;DHT22;10223;50.862;4.360;2023-02-21T15:44:19;8.80;99.90
20125;DHT22;10223;50.862;4.360;2023-02-21T15:46:50;9.10;99.90
20125;DHT22;10223;50.862;4.360;2023-02-21T15:49:22;9.20;99.90
20125;DHT22;10223;50.862;4.360;2023-02-21T15:51:50;9.10;99.90
20125;DHT22;10223;50.862;4.360;2023-02-21T15:54:24;9.20;99.90
20125;DHT22;10223;50.862;4.360;2023-02-21T15:57:04;9.10;99.90
20125;DHT22;10223;50.862;4.360;2023-02-21T15:59:31;9.00;99.90
20125;DHT22;10223;50.862;4.360;2023-02-21T16:02:20;9.10;99.90
20125;DHT22;10223;50.862;4.360;2023-02-21T16:04:52;9.20;99.90
20125;DHT22;10223;50.862;4.360;2023-02-21T16:07:22;9.20;99.90
20125;DHT22;10223;50.862;4.360;2023-02-21T16:09:57;9.20;99.90
20125;DHT22;10223;50.862;4.360;2023-02-21T16:12:28;9.00;99.90
20125;DHT22;10223;50.862;4.360;2023-02-21T16:15:00;8.90;99.90
20125;DHT22;10223;50.862;4.360;2023-02-21T16:17:31;8.90;99.90
20125;DHT22;10223;50.862;4.360;2023-02-21T16:20:01;8.70;99.90
20125;DHT22;10223;50.862;4.360;2023-02-21T16:22:34;8.80;99.90
20125;DHT22;10223;50.862;4.360;2023-02-21T16:25:14;8.90;99.90
20125;DHT22;10223;50.862;4.360;2023-02-21T16:27:43;9.00;99.90
20125;DHT22;10223;50.862;4.360;2023-02-21T16:30:12;9.00;99.90
20125;DHT22;10223;50.862;4.360;2023-02-21T16:32:44;9.10;99.90
20125;DHT22;10223;50.862;4.360;2023-02-21T16:35:17;9.00;99.90
20125;DHT22;10223;50.862;4.360;2023-02-21T16:37:46;9.10;99.90
20125;DHT22;10223;50.862;4.360;2023-02-21T16:40:16;9.10;99.90
20125;DHT22;10223;50.862;4.360;2023-02-21T16:42:46;9.20;99.90